Time;durP1;ratioP1;P1;durP2;ratioP2;P2;SDS_P1;SDS_P2;PMS_P1;PMS_P2;Temp;Humidity;BMP_temperature;BMP_pressure;BME280_temperature;BME280_humidity;BME280_pressure;Samples;Min_cycle;Max_cycle;Signal;HPM_P1;HPM_P2
2022/09/23 10:29:22;;;;;;;2.13;1.92;;;;;;;;;;5075968;22;20244;-90
2022/09/23 10:31:51;;;;;;;2.90;2.00;;;;;;;;;;5054945;28;20194;-90
2022/09/23 10:34:23;;;;;;;4.32;2.00;;;;;;;;;;5053859;28;20238;-90
2022/09/23 10:36:55;;;;;;;3.72;2.00;;;;;;;;;;5054388;28;20206;-90
2022/09/23 10:47:51;;;;;;;1.98;1.88;;;;;;;;;;5032786;28;20351;-88
2022/09/23 10:50:24;;;;;;;2.00;1.90;;;;;;;;;;5031540;28;20226;-89
2022/09/23 10:52:57;;;;;;;2.75;1.80;;;;;;;;;;5033730;28;20202;-89
2022/09/23 10:55:30;;;;;;;2.13;1.90;;;;;;;;;;5029846;28;20222;-89
2022/09/23 10:58:13;;;;;;;2.13;1.92;;;;;;;;;;5032979;28;20227;-89
2022/09/23 11:00:45;;;;;;;3.53;1.77;;;;;;;;;;5025917;28;20280;-89
2022/09/23 11:03:32;;;;;;;2.30;2.10;;;;;;;;;;5032878;28;20199;-90
2022/09/23 11:06:05;;;;;;;2.20;2.00;;;;;;;;;;5019774;28;20655;-90
2022/09/23 11:11:42;;;;;;;2.53;1.80;;;;;;;;;;4878883;29;20752;-90
2022/09/23 11:14:26;;;;;;;2.05;1.95;;;;;;;;;;5034358;28;20241;-91
2022/09/23 11:17:02;;;;;;;2.17;2.08;;;;;;;;;;5035142;28;20195;-90
2022/09/23 11:19:37;;;;;;;2.42;2.10;;;;;;;;;;5033956;28;20753;-90
2022/09/23 11:22:15;;;;;;;1.77;1.67;;;;;;;;;;5033890;28;20217;-90
2022/09/23 11:24:58;;;;;;;2.17;1.90;;;;;;;;;;5033173;28;20710;-90
2022/09/23 11:27:35;;;;;;;2.58;1.80;;;;;;;;;;5033772;28;20616;-89
2022/09/23 11:30:06;;;;;;;2.00;1.90;;;;;;;;;;5031731;28;20237;-88
2022/09/23 11:32:51;;;;;;;2.88;1.90;;;;;;;;;;5032510;28;20270;-89
2022/09/23 11:35:21;;;;;;;2.00;1.63;;;;;;;;;;5013624;28;20657;-88
2022/09/23 11:37:51;;;;;;;2.42;1.92;;;;;;;;;;5031729;28;20272;-88
2022/09/23 11:40:20;;;;;;;2.75;1.98;;;;;;;;;;5024072;28;20234;-87
2022/09/23 11:42:52;;;;;;;2.00;1.90;;;;;;;;;;5029954;28;20202;-90
2022/09/23 11:45:20;;;;;;;2.95;2.00;;;;;;;;;;5020359;28;20226;-88
2022/09/23 11:47:50;;;;;;;2.10;1.92;;;;;;;;;;5031990;28;20226;-88
2022/09/23 11:50:25;;;;;;;3.70;1.98;;;;;;;;;;5016632;28;20235;-88
2022/09/23 11:52:57;;;;;;;1.80;1.70;;;;;;;;;;5032438;28;20256;-89
2022/09/23 11:55:31;;;;;;;2.05;1.95;;;;;;;;;;5024872;28;20306;-86
2022/09/23 11:58:01;;;;;;;3.20;2.17;;;;;;;;;;5028596;28;20223;-86
2022/09/23 12:00:33;;;;;;;2.13;1.83;;;;;;;;;;5028933;28;20650;-87
2022/09/23 12:03:05;;;;;;;2.15;1.85;;;;;;;;;;5030328;28;20203;-86
2022/09/23 12:05:36;;;;;;;1.92;1.83;;;;;;;;;;5031739;28;20561;-86
2022/09/23 12:08:05;;;;;;;2.35;2.15;;;;;;;;;;5030452;28;20229;-85
2022/09/23 12:10:38;;;;;;;1.98;1.88;;;;;;;;;;5024315;28;20287;-86
2022/09/23 12:13:07;;;;;;;2.60;2.38;;;;;;;;;;5030602;28;20362;-86
2022/09/23 12:15:40;;;;;;;3.03;2.03;;;;;;;;;;5018129;28;20691;-89
2022/09/23 12:18:17;;;;;;;2.00;1.90;;;;;;;;;;5024860;28;20268;-87
2022/09/23 12:21:03;;;;;;;1.83;1.73;;;;;;;;;;5027259;28;20701;-87
2022/09/23 12:23:40;;;;;;;2.40;2.20;;;;;;;;;;5031473;28;20328;-88
2022/09/23 12:26:08;;;;;;;2.20;1.90;;;;;;;;;;5032523;28;20209;-90
2022/09/23 12:28:37;;;;;;;2.10;1.90;;;;;;;;;;5031414;28;20245;-88
2022/09/23 12:31:06;;;;;;;2.38;2.17;;;;;;;;;;5031307;28;20210;-91
2022/09/23 12:33:34;;;;;;;2.88;1.88;;;;;;;;;;5031478;28;20230;-87
2022/09/23 12:36:06;;;;;;;3.40;2.00;;;;;;;;;;5031601;28;20293;-86
2022/09/23 12:38:36;;;;;;;1.88;1.70;;;;;;;;;;5027479;28;20241;-86
2022/09/23 12:41:07;;;;;;;5.47;2.17;;;;;;;;;;5034301;28;20187;-86
2022/09/23 12:43:35;;;;;;;1.95;1.80;;;;;;;;;;5032246;28;20253;-89
2022/09/23 12:46:18;;;;;;;3.25;1.80;;;;;;;;;;5032547;28;20663;-87
2022/09/23 12:48:47;;;;;;;2.35;1.77;;;;;;;;;;5020680;28;20262;-90
2022/09/23 12:51:18;;;;;;;1.95;1.80;;;;;;;;;;5031280;28;20206;-85
2022/09/23 12:54:06;;;;;;;5.18;1.70;;;;;;;;;;5029884;28;20313;-86
2022/09/23 12:56:51;;;;;;;3.20;1.80;;;;;;;;;;5024899;28;20689;-86
2022/09/23 12:59:25;;;;;;;2.17;2.03;;;;;;;;;;5030677;28;20249;-85
2022/09/23 13:01:52;;;;;;;1.70;1.60;;;;;;;;;;5031907;28;20670;-86
2022/09/23 13:07:16;;;;;;;2.05;1.60;;;;;;;;;;5030029;28;20237;-85
2022/09/23 13:09:46;;;;;;;1.65;1.55;;;;;;;;;;5029702;28;20262;-87
2022/09/23 13:12:17;;;;;;;1.95;1.42;;;;;;;;;;5033594;28;20225;-87
2022/09/23 13:14:46;;;;;;;2.65;1.40;;;;;;;;;;5031450;28;20239;-87
2022/09/23 13:17:23;;;;;;;2.45;1.40;;;;;;;;;;5040543;28;20203;-86
2022/09/23 13:19:58;;;;;;;1.70;1.60;;;;;;;;;;5056202;28;20226;-86
2022/09/23 13:22:41;;;;;;;2.15;1.42;;;;;;;;;;5040988;28;20206;-86
2022/09/23 13:25:16;;;;;;;2.92;1.50;;;;;;;;;;5029454;28;20785;-88
2022/09/23 13:27:47;;;;;;;1.58;1.48;;;;;;;;;;5038487;28;20226;-87
2022/09/23 13:30:19;;;;;;;1.60;1.50;;;;;;;;;;5036959;28;20231;-87
2022/09/23 13:32:49;;;;;;;2.70;1.40;;;;;;;;;;5034471;28;20206;-88
2022/09/23 13:35:19;;;;;;;2.13;1.40;;;;;;;;;;5036422;28;20247;-87
2022/09/23 13:37:47;;;;;;;1.65;1.40;;;;;;;;;;5029371;28;20588;-88
2022/09/23 13:40:18;;;;;;;1.50;1.33;;;;;;;;;;5019753;28;20235;-88
2022/09/23 13:42:48;;;;;;;2.45;1.50;;;;;;;;;;5015565;28;20211;-85
2022/09/23 13:45:16;;;;;;;1.73;1.50;;;;;;;;;;5014604;28;20238;-86
2022/09/23 13:47:45;;;;;;;2.78;1.50;;;;;;;;;;5021218;28;20223;-86
2022/09/23 13:50:17;;;;;;;2.67;1.33;;;;;;;;;;5034564;28;20298;-85
2022/09/23 13:52:44;;;;;;;2.10;1.90;;;;;;;;;;5020557;28;20284;-85
2022/09/23 13:55:24;;;;;;;1.67;1.55;;;;;;;;;;5029501;28;20385;-86
2022/09/23 13:57:57;;;;;;;1.60;1.50;;;;;;;;;;5029201;28;20219;-89
2022/09/23 14:00:24;;;;;;;3.03;1.42;;;;;;;;;;5044551;28;20989;-89
2022/09/23 14:02:53;;;;;;;1.67;1.55;;;;;;;;;;5042694;28;20203;-92
2022/09/23 14:05:23;;;;;;;3.67;1.52;;;;;;;;;;5017510;28;20231;-91
2022/09/23 14:07:50;;;;;;;3.67;1.40;;;;;;;;;;5026385;28;20710;-92
2022/09/23 14:10:19;;;;;;;2.47;1.92;;;;;;;;;;5035228;28;20230;-92
2022/09/23 14:12:47;;;;;;;1.60;1.50;;;;;;;;;;5035468;28;20306;-91
2022/09/23 14:15:16;;;;;;;5.82;1.52;;;;;;;;;;5034890;28;20326;-91
2022/09/23 14:17:46;;;;;;;1.70;1.60;;;;;;;;;;5035233;28;20231;-92
2022/09/23 14:20:16;;;;;;;3.95;1.30;;;;;;;;;;5034985;28;20245;-91
2022/09/23 14:22:43;;;;;;;2.08;1.50;;;;;;;;;;5036139;28;20210;-92
2022/09/23 14:25:13;;;;;;;3.50;2.00;;;;;;;;;;5034878;28;20253;-92
2022/09/23 14:27:41;;;;;;;2.85;1.52;;;;;;;;;;5036123;28;20234;-91
2022/09/23 14:30:14;;;;;;;7.13;2.00;;;;;;;;;;5035876;28;20242;-92
2022/09/23 14:32:42;;;;;;;1.98;1.42;;;;;;;;;;5035553;28;20202;-91
2022/09/23 14:35:19;;;;;;;1.70;1.60;;;;;;;;;;5033613;28;20277;-92
2022/09/23 14:40:33;;;;;;;2.53;2.03;;;;;;;;;;5035381;28;20267;-91
2022/09/23 14:43:03;;;;;;;1.90;1.80;;;;;;;;;;5035492;28;20301;-92
2022/09/23 14:45:32;;;;;;;2.00;1.80;;;;;;;;;;5035669;28;20685;-92
2022/09/23 14:48:00;;;;;;;3.35;1.80;;;;;;;;;;5034906;28;20234;-92
2022/09/23 14:50:38;;;;;;;2.40;1.73;;;;;;;;;;5036904;28;20207;-92
2022/09/23 14:53:05;;;;;;;5.97;2.25;;;;;;;;;;5036102;28;20195;-92
2022/09/23 14:55:32;;;;;;;2.45;1.83;;;;;;;;;;5041940;28;20230;-92
2022/09/23 14:58:03;;;;;;;1.92;1.80;;;;;;;;;;5048011;28;20745;-92
2022/09/23 15:00:30;;;;;;;4.00;2.33;;;;;;;;;;5053784;28;20195;-93
2022/09/23 15:02:58;;;;;;;2.13;1.90;;;;;;;;;;5054328;28;20191;-91
2022/09/23 15:05:38;;;;;;;2.78;2.20;;;;;;;;;;5054315;28;20222;-91
2022/09/23 15:08:06;;;;;;;3.33;1.88;;;;;;;;;;5050945;28;20687;-91
2022/09/23 15:10:34;;;;;;;2.30;2.10;;;;;;;;;;5036128;28;20606;-91
2022/09/23 15:13:06;;;;;;;2.95;2.20;;;;;;;;;;5034483;28;20206;-91
2022/09/23 15:15:34;;;;;;;2.67;2.20;;;;;;;;;;5034765;28;20238;-91
2022/09/23 15:18:04;;;;;;;4.50;2.20;;;;;;;;;;5034310;28;20223;-91
2022/09/23 15:20:33;;;;;;;3.05;2.30;;;;;;;;;;5036195;28;20206;-91
2022/09/23 15:23:00;;;;;;;4.90;2.13;;;;;;;;;;5035144;28;20214;-91
2022/09/23 15:25:28;;;;;;;6.72;2.17;;;;;;;;;;5034230;28;20199;-91
2022/09/23 15:28:16;;;;;;;4.07;2.20;;;;;;;;;;5033770;28;20633;-92
2022/09/23 15:30:44;;;;;;;2.20;2.00;;;;;;;;;;5033559;28;20227;-90
2022/09/23 15:33:13;;;;;;;4.15;2.25;;;;;;;;;;5033223;28;20252;-89
2022/09/23 15:35:44;;;;;;;3.00;2.15;;;;;;;;;;5032985;28;20269;-85
2022/09/23 15:38:11;;;;;;;4.07;1.80;;;;;;;;;;5033038;28;20237;-89
2022/09/23 15:40:39;;;;;;;1.90;1.80;;;;;;;;;;5033581;28;20652;-89
2022/09/23 15:43:15;;;;;;;2.08;1.83;;;;;;;;;;5033564;28;20199;-89
2022/09/23 15:45:45;;;;;;;1.90;1.67;;;;;;;;;;5042260;28;20187;-89
2022/09/23 15:48:13;;;;;;;2.95;1.88;;;;;;;;;;5039132;28;20286;-90
2022/09/23 15:50:41;;;;;;;1.95;1.73;;;;;;;;;;5037509;28;20210;-89
2022/09/23 15:53:11;;;;;;;10.10;2.38;;;;;;;;;;5035807;28;20215;-89
2022/09/23 15:55:38;;;;;;;4.93;2.63;;;;;;;;;;5035929;28;20231;-89
2022/09/23 15:58:05;;;;;;;2.55;1.83;;;;;;;;;;5033426;28;20251;-89
2022/09/23 16:00:34;;;;;;;3.13;2.22;;;;;;;;;;5034471;28;20198;-89
2022/09/23 16:03:01;;;;;;;2.92;2.08;;;;;;;;;;5033201;28;20211;-89
2022/09/23 16:05:32;;;;;;;4.20;2.25;;;;;;;;;;5033492;28;20199;-89
2022/09/23 16:07:59;;;;;;;2.65;2.35;;;;;;;;;;5032373;28;20230;-89
2022/09/23 16:10:28;;;;;;;3.35;2.30;;;;;;;;;;5036443;28;20211;-89
2022/09/23 16:12:57;;;;;;;2.92;2.50;;;;;;;;;;5040827;28;20214;-89
2022/09/23 16:15:25;;;;;;;3.60;2.80;;;;;;;;;;5033110;28;20230;-89
2022/09/23 16:17:52;;;;;;;4.68;2.60;;;;;;;;;;5032976;28;20288;-89
2022/09/23 16:20:19;;;;;;;4.32;2.00;;;;;;;;;;5032743;28;20235;-89
2022/09/23 16:22:50;;;;;;;4.00;2.00;;;;;;;;;;5032781;28;20211;-89
2022/09/23 16:25:18;;;;;;;3.17;2.75;;;;;;;;;;5032765;28;20238;-89
2022/09/23 16:27:46;;;;;;;3.38;2.67;;;;;;;;;;5060755;22;20226;-88
2022/09/23 16:30:14;;;;;;;5.43;2.40;;;;;;;;;;5060629;28;20232;-85
2022/09/23 16:32:42;;;;;;;4.07;2.70;;;;;;;;;;5068903;28;20195;-84
2022/09/23 16:35:10;;;;;;;3.63;2.10;;;;;;;;;;5051969;28;20230;-86
2022/09/23 16:37:37;;;;;;;3.08;2.08;;;;;;;;;;5052446;28;20880;-87
2022/09/23 16:40:06;;;;;;;2.83;2.17;;;;;;;;;;5051985;28;20226;-85
2022/09/23 16:42:33;;;;;;;3.47;2.00;;;;;;;;;;5051958;28;20205;-89
2022/09/23 16:45:01;;;;;;;2.35;2.00;;;;;;;;;;5052204;28;20241;-86
2022/09/23 16:47:28;;;;;;;4.80;2.40;;;;;;;;;;5053142;28;20689;-87
2022/09/23 16:49:56;;;;;;;2.15;1.90;;;;;;;;;;5057030;28;20237;-86
2022/09/23 16:52:23;;;;;;;2.22;1.92;;;;;;;;;;5057330;28;20293;-88
2022/09/23 16:54:51;;;;;;;2.53;2.03;;;;;;;;;;5052907;28;20241;-88
2022/09/23 16:57:18;;;;;;;3.60;2.13;;;;;;;;;;5053284;28;20205;-88
2022/09/23 17:05:17;;;;;;;3.03;2.70;;;;;;;;;;5053177;28;20228;-85
2022/09/23 17:07:44;;;;;;;2.58;2.38;;;;;;;;;;5052832;28;20229;-88
2022/09/23 17:10:11;;;;;;;4.15;2.70;;;;;;;;;;5052512;28;20237;-88
2022/09/23 17:12:39;;;;;;;4.07;3.65;;;;;;;;;;5052905;28;20293;-85
2022/09/23 17:15:07;;;;;;;4.60;2.88;;;;;;;;;;5052072;28;20236;-89
2022/09/23 17:17:36;;;;;;;3.45;2.67;;;;;;;;;;5052922;28;20228;-88
2022/09/23 17:20:04;;;;;;;3.25;2.50;;;;;;;;;;5052927;28;20234;-89
2022/09/23 17:22:32;;;;;;;3.78;2.60;;;;;;;;;;5052928;28;20552;-89
2022/09/23 17:25:00;;;;;;;3.58;2.45;;;;;;;;;;5052429;28;20234;-86
2022/09/23 17:27:27;;;;;;;3.20;2.63;;;;;;;;;;5053231;28;20295;-88
2022/09/23 17:29:54;;;;;;;3.47;2.90;;;;;;;;;;5053643;28;20237;-87
2022/09/23 17:32:21;;;;;;;5.30;2.85;;;;;;;;;;5053459;28;20558;-87
2022/09/23 17:34:49;;;;;;;6.13;3.00;;;;;;;;;;5052905;28;20710;-84
2022/09/23 17:37:17;;;;;;;6.78;3.13;;;;;;;;;;5053142;28;20222;-86
2022/09/23 17:39:44;;;;;;;3.97;3.13;;;;;;;;;;5053016;28;20234;-85
2022/09/23 17:42:13;;;;;;;3.78;2.90;;;;;;;;;;5052871;28;20559;-85
2022/09/23 17:44:41;;;;;;;6.10;3.15;;;;;;;;;;5046412;28;20245;-85
2022/09/23 17:47:09;;;;;;;5.32;3.13;;;;;;;;;;5048561;28;20190;-86
2022/09/23 17:49:36;;;;;;;5.07;3.15;;;;;;;;;;5049392;28;20238;-83
2022/09/23 17:52:04;;;;;;;3.60;3.30;;;;;;;;;;5056030;28;20267;-85
2022/09/23 17:54:31;;;;;;;4.63;3.80;;;;;;;;;;5051021;28;20241;-84
2022/09/23 17:56:59;;;;;;;9.38;3.55;;;;;;;;;;5051276;28;20683;-84
2022/09/23 17:59:26;;;;;;;6.85;5.22;;;;;;;;;;5052762;28;20233;-84
2022/09/23 18:01:53;;;;;;;7.30;4.90;;;;;;;;;;5055190;28;20248;-84
2022/09/23 18:04:20;;;;;;;6.93;5.47;;;;;;;;;;5066042;28;20243;-84
2022/09/23 18:06:47;;;;;;;8.77;5.10;;;;;;;;;;5075177;28;20208;-84
2022/09/23 18:09:16;;;;;;;8.30;5.03;;;;;;;;;;5034703;28;20242;-84
2022/09/23 18:11:43;;;;;;;6.77;5.13;;;;;;;;;;5035510;28;20210;-84
2022/09/23 18:14:14;;;;;;;5.23;4.20;;;;;;;;;;5034952;28;20257;-84
2022/09/23 18:16:41;;;;;;;4.73;4.00;;;;;;;;;;5034997;28;20226;-84
2022/09/23 18:19:11;;;;;;;4.90;4.40;;;;;;;;;;5034293;28;20242;-85
2022/09/23 18:21:39;;;;;;;4.83;4.23;;;;;;;;;;5035412;28;20206;-84
2022/09/23 18:24:06;;;;;;;6.30;4.47;;;;;;;;;;5034512;28;20876;-84
2022/09/23 18:26:35;;;;;;;8.13;4.33;;;;;;;;;;5037816;28;20725;-84
2022/09/23 18:29:02;;;;;;;7.40;4.50;;;;;;;;;;5039494;28;20296;-83
2022/09/23 18:31:33;;;;;;;6.80;4.47;;;;;;;;;;5035587;28;20210;-84
2022/09/23 18:34:00;;;;;;;6.77;4.23;;;;;;;;;;5035108;28;20241;-85
2022/09/23 18:36:27;;;;;;;4.60;4.17;;;;;;;;;;5038621;28;20229;-85
2022/09/23 18:38:55;;;;;;;4.27;3.87;;;;;;;;;;5056876;28;20284;-85
2022/09/23 18:41:22;;;;;;;5.33;4.10;;;;;;;;;;5055595;28;20202;-85
2022/09/23 18:43:50;;;;;;;4.97;3.87;;;;;;;;;;5049743;28;20233;-86
2022/09/23 18:46:19;;;;;;;5.80;4.03;;;;;;;;;;5056069;28;20211;-85
2022/09/23 18:51:33;;;;;;;5.33;3.63;;;;;;;;;;5034507;28;20191;-84
2022/09/23 18:54:01;;;;;;;6.33;3.67;;;;;;;;;;5033844;28;20234;-85
2022/09/23 18:56:31;;;;;;;6.67;3.50;;;;;;;;;;5045229;28;20226;-85
2022/09/23 18:58:59;;;;;;;6.20;3.60;;;;;;;;;;5053381;28;20238;-85
2022/09/23 19:01:27;;;;;;;4.87;3.90;;;;;;;;;;5054472;28;20206;-85
2022/09/23 19:03:55;;;;;;;4.83;3.60;;;;;;;;;;5053278;28;20705;-86
2022/09/23 19:06:22;;;;;;;9.07;3.80;;;;;;;;;;5046767;28;20234;-86
2022/09/23 19:08:50;;;;;;;4.00;3.60;;;;;;;;;;5053984;28;20245;-86
2022/09/23 19:11:17;;;;;;;4.33;3.50;;;;;;;;;;5055090;28;20205;-86
2022/09/23 19:13:44;;;;;;;4.83;3.47;;;;;;;;;;5051752;28;20227;-86
2022/09/23 19:16:14;;;;;;;4.30;3.67;;;;;;;;;;5044010;28;20225;-85
2022/09/23 19:18:41;;;;;;;5.00;3.80;;;;;;;;;;5034041;28;20246;-86
2022/09/23 19:21:10;;;;;;;5.20;3.60;;;;;;;;;;5035224;28;20282;-85
2022/09/23 19:23:38;;;;;;;5.90;3.70;;;;;;;;;;5034698;28;20242;-86
2022/09/23 19:26:06;;;;;;;7.47;3.93;;;;;;;;;;5034764;28;20203;-86
2022/09/23 19:28:33;;;;;;;5.33;3.93;;;;;;;;;;5033527;28;20241;-87
2022/09/23 19:31:09;;;;;;;5.50;3.63;;;;;;;;;;5035509;28;20198;-87
2022/09/23 19:33:40;;;;;;;6.50;4.17;;;;;;;;;;5035837;28;20239;-86
2022/09/23 19:36:08;;;;;;;6.53;3.90;;;;;;;;;;5035399;28;20233;-87
2022/09/23 19:38:35;;;;;;;4.53;4.07;;;;;;;;;;5034239;28;20338;-87
2022/09/23 19:41:04;;;;;;;7.13;3.53;;;;;;;;;;5035261;28;20825;-86
2022/09/23 19:43:31;;;;;;;6.50;3.47;;;;;;;;;;5035626;28;20234;-87
2022/09/23 19:45:58;;;;;;;3.23;2.93;;;;;;;;;;5034317;28;20207;-85
2022/09/23 19:48:25;;;;;;;4.00;3.60;;;;;;;;;;5041923;28;20237;-87
2022/09/23 19:50:53;;;;;;;4.07;3.53;;;;;;;;;;5054120;28;20230;-85
2022/09/23 19:53:20;;;;;;;6.93;3.70;;;;;;;;;;5053367;28;20236;-86
2022/09/23 19:55:47;;;;;;;4.03;3.50;;;;;;;;;;5053969;28;20236;-87
2022/09/23 19:58:14;;;;;;;4.83;3.77;;;;;;;;;;5053166;28;20222;-85
2022/09/23 20:00:42;;;;;;;5.67;3.60;;;;;;;;;;5053740;28;20735;-85
2022/09/23 20:03:09;;;;;;;4.17;3.60;;;;;;;;;;5053301;28;20674;-86
2022/09/23 20:05:36;;;;;;;5.30;3.47;;;;;;;;;;5053909;28;20238;-86
2022/09/23 20:08:05;;;;;;;3.77;3.47;;;;;;;;;;5052940;28;20288;-86
2022/09/23 20:10:32;;;;;;;5.23;4.10;;;;;;;;;;5054044;28;20198;-86
2022/09/23 20:12:59;;;;;;;4.97;3.93;;;;;;;;;;5058578;28;20194;-87
2022/09/23 20:15:27;;;;;;;7.07;4.30;;;;;;;;;;5055308;28;20202;-86
2022/09/23 20:17:57;;;;;;;7.20;3.93;;;;;;;;;;5054539;28;20284;-86
2022/09/23 20:20:24;;;;;;;5.73;4.40;;;;;;;;;;5054253;28;20210;-89
2022/09/23 20:22:53;;;;;;;5.70;3.93;;;;;;;;;;5053942;28;20245;-88
2022/09/23 20:25:22;;;;;;;6.77;5.10;;;;;;;;;;5053687;28;20331;-89
2022/09/23 20:27:52;;;;;;;6.13;4.90;;;;;;;;;;5053830;28;20237;-89
2022/09/23 20:30:19;;;;;;;5.13;4.60;;;;;;;;;;5052839;28;20229;-88
2022/09/23 20:32:47;;;;;;;4.93;4.10;;;;;;;;;;5053634;28;20213;-88
2022/09/23 20:35:15;;;;;;;5.07;4.43;;;;;;;;;;5053475;28;20765;-89
2022/09/23 20:37:42;;;;;;;7.20;5.17;;;;;;;;;;5053098;28;20751;-90
2022/09/23 20:40:10;;;;;;;5.90;4.50;;;;;;;;;;5053350;28;20233;-90
2022/09/23 20:42:39;;;;;;;5.10;4.60;;;;;;;;;;5055078;28;20217;-89
2022/09/23 20:45:07;;;;;;;8.67;4.50;;;;;;;;;;5054433;28;20233;-89
2022/09/23 20:47:34;;;;;;;7.23;4.20;;;;;;;;;;5057397;28;20208;-89
2022/09/23 20:50:01;;;;;;;7.80;5.30;;;;;;;;;;5052588;28;20230;-89
2022/09/23 20:52:28;;;;;;;5.43;4.87;;;;;;;;;;5059500;28;20206;-90
2022/09/23 20:54:55;;;;;;;5.63;4.60;;;;;;;;;;5054592;28;20697;-90
2022/09/23 20:57:22;;;;;;;5.33;4.83;;;;;;;;;;5053102;28;20233;-88
2022/09/23 20:59:51;;;;;;;4.97;4.50;;;;;;;;;;5054625;28;20234;-87
2022/09/23 21:02:18;;;;;;;7.07;4.33;;;;;;;;;;5053623;28;20205;-88
2022/09/23 21:04:45;;;;;;;5.10;3.93;;;;;;;;;;5053370;28;20681;-88
2022/09/23 21:07:12;;;;;;;4.83;4.33;;;;;;;;;;5053268;28;20210;-87
2022/09/23 21:09:39;;;;;;;5.30;4.77;;;;;;;;;;5053121;28;20499;-90
2022/09/23 21:12:06;;;;;;;4.50;3.97;;;;;;;;;;5053436;28;20696;-88
2022/09/23 21:14:33;;;;;;;6.10;4.23;;;;;;;;;;5052661;28;20238;-88
2022/09/23 21:17:02;;;;;;;4.80;4.40;;;;;;;;;;5053122;28;20241;-90
2022/09/23 21:19:30;;;;;;;5.23;4.33;;;;;;;;;;5051866;28;20234;-90
2022/09/23 21:21:57;;;;;;;6.40;5.13;;;;;;;;;;5053047;28;20214;-90
2022/09/23 21:24:24;;;;;;;5.77;4.73;;;;;;;;;;5052067;28;20234;-90
2022/09/23 21:27:18;;;;;;;4.37;3.97;;;;;;;;;;5054095;28;20206;-90
2022/09/23 21:29:45;;;;;;;4.73;4.23;;;;;;;;;;5052215;28;20234;-89
2022/09/23 21:32:13;;;;;;;5.67;4.80;;;;;;;;;;5053118;28;20210;-88
2022/09/23 21:34:40;;;;;;;6.50;4.93;;;;;;;;;;5054800;28;20230;-90
2022/09/23 21:37:07;;;;;;;5.77;4.47;;;;;;;;;;5056141;28;20686;-90
2022/09/23 21:39:34;;;;;;;8.17;5.20;;;;;;;;;;5055940;28;20717;-87
2022/09/23 21:42:02;;;;;;;6.27;4.83;;;;;;;;;;5057172;28;20248;-88
2022/09/23 21:44:31;;;;;;;9.40;5.60;;;;;;;;;;5056662;28;20229;-90
2022/09/23 21:46:58;;;;;;;5.47;4.53;;;;;;;;;;5057143;28;20209;-89
2022/09/23 21:49:27;;;;;;;5.17;4.67;;;;;;;;;;5055984;28;20277;-88
2022/09/23 21:51:57;;;;;;;6.43;5.47;;;;;;;;;;5058309;28;20203;-88
2022/09/23 21:54:24;;;;;;;8.50;5.70;;;;;;;;;;5056425;28;20242;-90
2022/09/23 21:56:53;;;;;;;6.80;4.57;;;;;;;;;;5057236;28;20237;-88
2022/09/23 21:59:20;;;;;;;5.87;5.33;;;;;;;;;;5045928;28;20722;-88
2022/09/23 22:01:47;;;;;;;5.90;4.87;;;;;;;;;;5038065;28;20580;-88
2022/09/23 22:04:15;;;;;;;6.50;5.23;;;;;;;;;;5037160;28;20804;-88
2022/09/23 22:06:44;;;;;;;6.60;6.00;;;;;;;;;;5037508;28;20211;-88
2022/09/23 22:09:12;;;;;;;7.03;5.57;;;;;;;;;;5035722;28;20235;-88
2022/09/23 22:14:25;;;;;;;7.57;6.00;;;;;;;;;;5035686;28;20308;-88
2022/09/23 22:16:56;;;;;;;6.60;6.00;;;;;;;;;;5036160;28;20230;-88
2022/09/23 22:19:25;;;;;;;6.20;5.60;;;;;;;;;;5035796;28;20292;-88
2022/09/23 22:21:54;;;;;;;7.23;5.67;;;;;;;;;;5036998;28;20232;-88
2022/09/23 22:24:21;;;;;;;5.77;5.27;;;;;;;;;;5048789;28;20237;-88
2022/09/23 22:26:48;;;;;;;8.93;5.93;;;;;;;;;;5057877;28;20212;-88
2022/09/23 22:34:47;;;;;;;6.83;6.13;;;;;;;;;;5057847;28;20240;-89
2022/09/23 22:37:16;;;;;;;6.57;5.77;;;;;;;;;;5057092;28;20233;-90
2022/09/23 22:39:44;;;;;;;8.97;6.83;;;;;;;;;;5055449;28;20237;-89
2022/09/23 22:42:11;;;;;;;6.47;5.87;;;;;;;;;;5056907;28;20231;-89
2022/09/23 22:44:38;;;;;;;8.57;5.73;;;;;;;;;;5056005;28;20309;-89
2022/09/23 22:47:06;;;;;;;6.63;5.53;;;;;;;;;;5055615;28;20202;-89
2022/09/23 22:49:33;;;;;;;7.83;6.00;;;;;;;;;;5055931;28;20614;-89
2022/09/23 22:52:01;;;;;;;5.77;5.27;;;;;;;;;;5056810;28;20209;-90
2022/09/23 22:54:29;;;;;;;5.97;5.37;;;;;;;;;;5076052;28;20218;-90
2022/09/23 22:56:56;;;;;;;5.87;5.30;;;;;;;;;;5080419;28;20213;-90
2022/09/23 22:59:46;;;;;;;5.77;5.27;;;;;;;;;;5067977;28;20295;-89
2022/09/23 23:02:14;;;;;;;8.23;5.20;;;;;;;;;;5060432;28;20196;-89
2022/09/23 23:04:44;;;;;;;7.03;5.53;;;;;;;;;;5059311;28;20265;-89
2022/09/23 23:07:11;;;;;;;6.27;5.63;;;;;;;;;;5060745;28;20821;-89
2022/09/23 23:09:40;;;;;;;7.53;5.60;;;;;;;;;;5061615;28;20639;-89
2022/09/23 23:12:07;;;;;;;6.33;5.73;;;;;;;;;;5062227;28;20206;-89
2022/09/23 23:14:34;;;;;;;6.53;5.93;;;;;;;;;;5061216;28;20245;-89
2022/09/23 23:17:04;;;;;;;7.53;5.40;;;;;;;;;;5061914;28;20233;-89
2022/09/23 23:19:31;;;;;;;6.60;5.90;;;;;;;;;;5061226;28;20268;-89
2022/09/23 23:21:58;;;;;;;6.87;6.17;;;;;;;;;;5062302;28;20243;-89
2022/09/23 23:24:25;;;;;;;5.97;5.47;;;;;;;;;;5061191;28;20237;-89
2022/09/23 23:26:53;;;;;;;6.40;5.23;;;;;;;;;;5061957;28;20210;-89
2022/09/23 23:29:21;;;;;;;5.93;5.37;;;;;;;;;;5058744;28;20242;-89
2022/09/23 23:31:48;;;;;;;8.10;5.80;;;;;;;;;;5054976;28;20283;-89
2022/09/23 23:34:16;;;;;;;6.63;6.03;;;;;;;;;;5054201;28;20237;-89
2022/09/23 23:36:44;;;;;;;9.50;6.10;;;;;;;;;;5054488;28;20195;-89
2022/09/23 23:39:11;;;;;;;6.27;5.53;;;;;;;;;;5056038;28;20643;-90
2022/09/23 23:41:40;;;;;;;6.30;5.70;;;;;;;;;;5057195;28;20204;-90
2022/09/23 23:44:09;;;;;;;6.57;5.87;;;;;;;;;;5057448;28;20316;-90
2022/09/23 23:46:36;;;;;;;7.67;6.17;;;;;;;;;;5056648;28;20202;-90
2022/09/23 23:49:03;;;;;;;6.17;5.50;;;;;;;;;;5054516;28;20714;-90
2022/09/23 23:51:30;;;;;;;7.17;5.67;;;;;;;;;;5054124;28;20203;-90
2022/09/23 23:53:59;;;;;;;5.77;5.27;;;;;;;;;;5053784;28;20246;-90
2022/09/23 23:56:26;;;;;;;7.53;5.67;;;;;;;;;;5054071;28;20213;-90
2022/09/23 23:58:54;;;;;;;6.93;6.00;;;;;;;;;;5053221;28;20252;-90
